Ana Sayfa
METAR-TAF:

METAR-TAF

Havaalanları :

Farmington Regional Airport

Farmington, Missouri, Amerika Birleşik Devletleri

Enlem: 37-46N, Boylam: 090-26W, yükseklik: 288 m

Güncel hava durumu gözlemi

Rapor saat 16:56 UTC de 51 dakika önce yapıldı.
Rüzgar güneydoğudan 8 kt
Sıcaklık 6°C
Nem 31%
Basınç 1033 hPa
Görüş mesafesi: 16.1 km
Açık gökyüzü

METAR: KFAM 291656Z AUTO 13008KT 10SM CLR 06/M10 A3049 RMK AO2 SLP343 T00561100

Saat: 11:47 (17:47 UTC)


TAF: eksik

4.000'den fazla havaalanı için hava durumu gözlemleri ve tahminleri (METAR ve TAF raporları).

Kullanılabilir istasyonlar harita üzerinde sarı ve kırmızı noktalarla gösterilir.

İstasyonun adını görmek için fareyi noktanın üzerinde gezdirin.

Sonrasında hava gözlem ve tahminlerini görmek için tıklayın.

Haritayı değiştirmek için: yaklaştırmak için siyah artı işaretli yeşil düğmeye ve uzaklaştırmak için de eksi işaretli düğmeye hızla tıklayın; bitişik haritalar için yeşil okları kullanın.


METAR-TAF: